sensor_id;sensor_type;location;lat;lon;timestamp;P1;durP1;ratioP1;P2;durP2;ratioP2
10465;SDS011;5280;42.600;23.556;2024-02-14T00:02:02;6.83;;;6.13;;
10465;SDS011;5280;42.600;23.556;2024-02-14T00:04:31;7.20;;;6.47;;
10465;SDS011;5280;42.600;23.556;2024-02-14T00:06:59;7.40;;;6.60;;
10465;SDS011;5280;42.600;23.556;2024-02-14T00:09:26;9.13;;;6.77;;
10465;SDS011;5280;42.600;23.556;2024-02-14T00:11:53;7.17;;;6.47;;
10465;SDS011;5280;42.600;23.556;2024-02-14T00:14:20;8.37;;;6.87;;
10465;SDS011;5280;42.600;23.556;2024-02-14T00:16:47;8.27;;;7.23;;
10465;SDS011;5280;42.600;23.556;2024-02-14T00:19:14;7.07;;;6.37;;
10465;SDS011;5280;42.600;23.556;2024-02-14T00:21:40;7.67;;;6.83;;
10465;SDS011;5280;42.600;23.556;2024-02-14T00:24:09;10.13;;;7.17;;
10465;SDS011;5280;42.600;23.556;2024-02-14T00:26:36;9.67;;;7.50;;
10465;SDS011;5280;42.600;23.556;2024-02-14T00:29:04;9.87;;;7.83;;
10465;SDS011;5280;42.600;23.556;2024-02-14T00:31:31;8.10;;;7.03;;
10465;SDS011;5280;42.600;23.556;2024-02-14T00:33:58;8.43;;;7.40;;
10465;SDS011;5280;42.600;23.556;2024-02-14T00:36:25;8.53;;;7.57;;
10465;SDS011;5280;42.600;23.556;2024-02-14T00:38:52;8.93;;;7.10;;
10465;SDS011;5280;42.600;23.556;2024-02-14T00:41:20;8.40;;;7.50;;
10465;SDS011;5280;42.600;23.556;2024-02-14T00:43:47;8.10;;;6.43;;
10465;SDS011;5280;42.600;23.556;2024-02-14T00:46:15;8.07;;;7.17;;
10465;SDS011;5280;42.600;23.556;2024-02-14T00:48:43;7.43;;;6.70;;
10465;SDS011;5280;42.600;23.556;2024-02-14T00:51:10;7.80;;;7.00;;
10465;SDS011;5280;42.600;23.556;2024-02-14T00:53:37;9.63;;;7.20;;
10465;SDS011;5280;42.600;23.556;2024-02-14T00:56:04;7.60;;;6.77;;
10465;SDS011;5280;42.600;23.556;2024-02-14T00:58:33;12.17;;;7.10;;
10465;SDS011;5280;42.600;23.556;2024-02-14T01:01:00;8.43;;;7.20;;
10465;SDS011;5280;42.600;23.556;2024-02-14T01:03:27;8.10;;;6.67;;
10465;SDS011;5280;42.600;23.556;2024-02-14T01:05:54;8.23;;;6.70;;
10465;SDS011;5280;42.600;23.556;2024-02-14T01:08:21;8.30;;;7.07;;
10465;SDS011;5280;42.600;23.556;2024-02-14T01:10:48;9.00;;;7.47;;
10465;SDS011;5280;42.600;23.556;2024-02-14T01:13:15;9.53;;;7.03;;
10465;SDS011;5280;42.600;23.556;2024-02-14T01:15:43;7.07;;;6.23;;
10465;SDS011;5280;42.600;23.556;2024-02-14T01:18:10;7.83;;;7.03;;
10465;SDS011;5280;42.600;23.556;2024-02-14T01:20:37;8.00;;;6.90;;
10465;SDS011;5280;42.600;23.556;2024-02-14T01:23:04;7.80;;;6.43;;
10465;SDS011;5280;42.600;23.556;2024-02-14T01:25:31;8.10;;;6.77;;
10465;SDS011;5280;42.600;23.556;2024-02-14T01:27:59;8.83;;;7.13;;
10465;SDS011;5280;42.600;23.556;2024-02-14T01:30:25;9.33;;;7.03;;
10465;SDS011;5280;42.600;23.556;2024-02-14T01:32:54;7.43;;;6.53;;
10465;SDS011;5280;42.600;23.556;2024-02-14T01:35:21;8.00;;;6.93;;
10465;SDS011;5280;42.600;23.556;2024-02-14T01:37:48;8.17;;;7.10;;
10465;SDS011;5280;42.600;23.556;2024-02-14T01:40:15;7.40;;;6.50;;
10465;SDS011;5280;42.600;23.556;2024-02-14T01:42:41;8.57;;;7.23;;
10465;SDS011;5280;42.600;23.556;2024-02-14T01:45:09;7.87;;;7.03;;
10465;SDS011;5280;42.600;23.556;2024-02-14T01:47:36;7.73;;;6.93;;
10465;SDS011;5280;42.600;23.556;2024-02-14T01:50:06;7.30;;;6.53;;
10465;SDS011;5280;42.600;23.556;2024-02-14T01:52:36;8.47;;;7.50;;
10465;SDS011;5280;42.600;23.556;2024-02-14T01:55:05;8.20;;;6.70;;
10465;SDS011;5280;42.600;23.556;2024-02-14T01:57:34;7.90;;;6.83;;
10465;SDS011;5280;42.600;23.556;2024-02-14T02:00:04;8.13;;;6.83;;
10465;SDS011;5280;42.600;23.556;2024-02-14T02:02:33;10.13;;;7.30;;
10465;SDS011;5280;42.600;23.556;2024-02-14T02:05:02;7.57;;;6.73;;
10465;SDS011;5280;42.600;23.556;2024-02-14T02:07:32;8.17;;;7.27;;
10465;SDS011;5280;42.600;23.556;2024-02-14T02:09:59;9.20;;;7.47;;
10465;SDS011;5280;42.600;23.556;2024-02-14T02:12:26;9.20;;;8.17;;
10465;SDS011;5280;42.600;23.556;2024-02-14T02:14:53;9.93;;;7.90;;
10465;SDS011;5280;42.600;23.556;2024-02-14T02:17:21;8.40;;;7.53;;
10465;SDS011;5280;42.600;23.556;2024-02-14T02:19:48;8.50;;;7.47;;
10465;SDS011;5280;42.600;23.556;2024-02-14T02:22:14;10.17;;;8.00;;
10465;SDS011;5280;42.600;23.556;2024-02-14T02:24:43;10.53;;;7.87;;
10465;SDS011;5280;42.600;23.556;2024-02-14T02:27:10;9.97;;;8.47;;
10465;SDS011;5280;42.600;23.556;2024-02-14T02:29:39;9.97;;;8.10;;
10465;SDS011;5280;42.600;23.556;2024-02-14T02:32:06;9.00;;;8.10;;
10465;SDS011;5280;42.600;23.556;2024-02-14T02:34:35;8.63;;;7.50;;
10465;SDS011;5280;42.600;23.556;2024-02-14T02:37:04;9.33;;;8.43;;
10465;SDS011;5280;42.600;23.556;2024-02-14T02:39:34;8.90;;;8.00;;
10465;SDS011;5280;42.600;23.556;2024-02-14T02:42:03;8.67;;;7.80;;
10465;SDS011;5280;42.600;23.556;2024-02-14T02:44:30;9.80;;;7.70;;
10465;SDS011;5280;42.600;23.556;2024-02-14T02:46:58;9.73;;;8.13;;
10465;SDS011;5280;42.600;23.556;2024-02-14T02:49:25;10.30;;;8.97;;
10465;SDS011;5280;42.600;23.556;2024-02-14T02:51:54;10.57;;;7.73;;
10465;SDS011;5280;42.600;23.556;2024-02-14T02:54:21;10.20;;;7.93;;
10465;SDS011;5280;42.600;23.556;2024-02-14T02:56:48;9.63;;;7.93;;
10465;SDS011;5280;42.600;23.556;2024-02-14T02:59:17;9.97;;;7.67;;
10465;SDS011;5280;42.600;23.556;2024-02-14T03:01:44;9.47;;;7.90;;
10465;SDS011;5280;42.600;23.556;2024-02-14T03:04:11;9.27;;;8.13;;
10465;SDS011;5280;42.600;23.556;2024-02-14T03:06:40;9.73;;;8.33;;
10465;SDS011;5280;42.600;23.556;2024-02-14T03:09:08;8.50;;;7.60;;
10465;SDS011;5280;42.600;23.556;2024-02-14T03:11:35;9.53;;;7.67;;
10465;SDS011;5280;42.600;23.556;2024-02-14T03:14:02;8.77;;;7.43;;
10465;SDS011;5280;42.600;23.556;2024-02-14T03:16:30;9.87;;;8.07;;
10465;SDS011;5280;42.600;23.556;2024-02-14T03:18:57;9.83;;;7.93;;
10465;SDS011;5280;42.600;23.556;2024-02-14T03:21:25;8.97;;;8.07;;
10465;SDS011;5280;42.600;23.556;2024-02-14T03:23:53;8.87;;;7.97;;
10465;SDS011;5280;42.600;23.556;2024-02-14T03:26:20;9.30;;;8.10;;
10465;SDS011;5280;42.600;23.556;2024-02-14T03:28:48;9.00;;;8.10;;
10465;SDS011;5280;42.600;23.556;2024-02-14T03:31:15;8.43;;;7.53;;
10465;SDS011;5280;42.600;23.556;2024-02-14T03:33:43;10.20;;;8.80;;
10465;SDS011;5280;42.600;23.556;2024-02-14T03:36:10;9.37;;;8.13;;
10465;SDS011;5280;42.600;23.556;2024-02-14T03:38:37;10.10;;;8.70;;
10465;SDS011;5280;42.600;23.556;2024-02-14T03:41:04;10.03;;;8.67;;
10465;SDS011;5280;42.600;23.556;2024-02-14T03:43:32;11.10;;;8.47;;
10465;SDS011;5280;42.600;23.556;2024-02-14T03:45:59;10.27;;;8.17;;
10465;SDS011;5280;42.600;23.556;2024-02-14T03:48:26;10.67;;;9.17;;
10465;SDS011;5280;42.600;23.556;2024-02-14T03:50:55;11.83;;;8.90;;
10465;SDS011;5280;42.600;23.556;2024-02-14T03:53:22;9.67;;;7.90;;
10465;SDS011;5280;42.600;23.556;2024-02-14T03:55:49;10.27;;;8.63;;
10465;SDS011;5280;42.600;23.556;2024-02-14T03:58:18;9.67;;;8.40;;
10465;SDS011;5280;42.600;23.556;2024-02-14T04:00:47;11.13;;;9.10;;
10465;SDS011;5280;42.600;23.556;2024-02-14T04:03:16;11.60;;;9.30;;
10465;SDS011;5280;42.600;23.556;2024-02-14T04:05:43;10.23;;;8.47;;
10465;SDS011;5280;42.600;23.556;2024-02-14T04:08:11;11.20;;;8.47;;
10465;SDS011;5280;42.600;23.556;2024-02-14T04:10:38;11.73;;;9.27;;
10465;SDS011;5280;42.600;23.556;2024-02-14T04:13:06;10.80;;;8.43;;
10465;SDS011;5280;42.600;23.556;2024-02-14T04:15:35;11.03;;;8.33;;
10465;SDS011;5280;42.600;23.556;2024-02-14T04:18:01;11.97;;;8.30;;
10465;SDS011;5280;42.600;23.556;2024-02-14T04:20:31;10.93;;;9.30;;
10465;SDS011;5280;42.600;23.556;2024-02-14T04:22:58;9.73;;;8.73;;
10465;SDS011;5280;42.600;23.556;2024-02-14T04:25:26;9.37;;;8.13;;
10465;SDS011;5280;42.600;23.556;2024-02-14T04:27:53;9.77;;;8.77;;
10465;SDS011;5280;42.600;23.556;2024-02-14T04:30:20;9.83;;;8.60;;
10465;SDS011;5280;42.600;23.556;2024-02-14T04:32:48;11.30;;;8.97;;
10465;SDS011;5280;42.600;23.556;2024-02-14T04:35:15;10.13;;;8.57;;
10465;SDS011;5280;42.600;23.556;2024-02-14T04:37:42;10.07;;;9.03;;
10465;SDS011;5280;42.600;23.556;2024-02-14T04:40:11;11.17;;;9.20;;
10465;SDS011;5280;42.600;23.556;2024-02-14T04:42:40;11.60;;;8.90;;
10465;SDS011;5280;42.600;23.556;2024-02-14T04:45:07;9.33;;;8.13;;
10465;SDS011;5280;42.600;23.556;2024-02-14T04:47:34;11.13;;;9.13;;
10465;SDS011;5280;42.600;23.556;2024-02-14T04:50:02;9.87;;;8.83;;
10465;SDS011;5280;42.600;23.556;2024-02-14T04:52:29;14.37;;;9.70;;
10465;SDS011;5280;42.600;23.556;2024-02-14T04:54:56;10.33;;;9.33;;
10465;SDS011;5280;42.600;23.556;2024-02-14T04:57:23;11.67;;;9.13;;
10465;SDS011;5280;42.600;23.556;2024-02-14T04:59:52;11.40;;;9.60;;
10465;SDS011;5280;42.600;23.556;2024-02-14T05:02:19;11.03;;;9.43;;
10465;SDS011;5280;42.600;23.556;2024-02-14T05:04:46;11.33;;;10.00;;
10465;SDS011;5280;42.600;23.556;2024-02-14T05:07:13;11.43;;;10.10;;
10465;SDS011;5280;42.600;23.556;2024-02-14T05:09:41;11.40;;;10.20;;
10465;SDS011;5280;42.600;23.556;2024-02-14T05:12:09;11.70;;;10.03;;
10465;SDS011;5280;42.600;23.556;2024-02-14T05:14:37;11.17;;;8.87;;
10465;SDS011;5280;42.600;23.556;2024-02-14T05:17:06;11.03;;;9.37;;
10465;SDS011;5280;42.600;23.556;2024-02-14T05:19:34;11.20;;;9.90;;
10465;SDS011;5280;42.600;23.556;2024-02-14T05:22:00;12.03;;;10.37;;
10465;SDS011;5280;42.600;23.556;2024-02-14T05:24:27;11.23;;;9.90;;
10465;SDS011;5280;42.600;23.556;2024-02-14T05:26:55;14.30;;;10.63;;
10465;SDS011;5280;42.600;23.556;2024-02-14T05:29:22;13.97;;;11.03;;
10465;SDS011;5280;42.600;23.556;2024-02-14T05:31:49;14.17;;;10.63;;
10465;SDS011;5280;42.600;23.556;2024-02-14T05:34:19;13.10;;;10.83;;
10465;SDS011;5280;42.600;23.556;2024-02-14T05:36:46;13.80;;;11.00;;
10465;SDS011;5280;42.600;23.556;2024-02-14T05:39:13;12.67;;;11.17;;
10465;SDS011;5280;42.600;23.556;2024-02-14T05:41:41;12.60;;;11.23;;
10465;SDS011;5280;42.600;23.556;2024-02-14T05:44:08;12.13;;;10.70;;
10465;SDS011;5280;42.600;23.556;2024-02-14T05:46:35;13.67;;;10.80;;
10465;SDS011;5280;42.600;23.556;2024-02-14T05:49:02;11.80;;;10.47;;
10465;SDS011;5280;42.600;23.556;2024-02-14T05:51:30;12.87;;;10.77;;
10465;SDS011;5280;42.600;23.556;2024-02-14T05:53:57;13.83;;;11.50;;
10465;SDS011;5280;42.600;23.556;2024-02-14T05:56:25;12.63;;;11.23;;
10465;SDS011;5280;42.600;23.556;2024-02-14T05:58:51;12.47;;;11.17;;
10465;SDS011;5280;42.600;23.556;2024-02-14T06:01:18;14.37;;;12.27;;
10465;SDS011;5280;42.600;23.556;2024-02-14T06:03:45;14.60;;;11.40;;
10465;SDS011;5280;42.600;23.556;2024-02-14T06:06:12;14.97;;;11.67;;
10465;SDS011;5280;42.600;23.556;2024-02-14T06:08:41;14.37;;;11.77;;
10465;SDS011;5280;42.600;23.556;2024-02-14T06:11:07;14.23;;;11.27;;
10465;SDS011;5280;42.600;23.556;2024-02-14T06:13:34;13.03;;;11.23;;
10465;SDS011;5280;42.600;23.556;2024-02-14T06:16:01;13.27;;;11.87;;
10465;SDS011;5280;42.600;23.556;2024-02-14T06:18:29;13.90;;;11.50;;
10465;SDS011;5280;42.600;23.556;2024-02-14T06:20:56;13.33;;;11.27;;
10465;SDS011;5280;42.600;23.556;2024-02-14T06:23:23;13.10;;;11.70;;
10465;SDS011;5280;42.600;23.556;2024-02-14T06:25:52;13.27;;;11.73;;
10465;SDS011;5280;42.600;23.556;2024-02-14T06:28:18;14.03;;;12.10;;
10465;SDS011;5280;42.600;23.556;2024-02-14T06:30:46;15.23;;;11.40;;
10465;SDS011;5280;42.600;23.556;2024-02-14T06:33:13;12.60;;;11.17;;
10465;SDS011;5280;42.600;23.556;2024-02-14T06:35:40;13.37;;;11.50;;
10465;SDS011;5280;42.600;23.556;2024-02-14T06:38:07;12.37;;;10.37;;
10465;SDS011;5280;42.600;23.556;2024-02-14T06:40:34;12.10;;;10.60;;
10465;SDS011;5280;42.600;23.556;2024-02-14T06:43:03;12.50;;;11.20;;
10465;SDS011;5280;42.600;23.556;2024-02-14T06:45:31;13.17;;;11.60;;
10465;SDS011;5280;42.600;23.556;2024-02-14T06:47:58;13.93;;;11.53;;
10465;SDS011;5280;42.600;23.556;2024-02-14T06:50:25;12.53;;;11.07;;
10465;SDS011;5280;42.600;23.556;2024-02-14T06:52:54;14.20;;;10.93;;
10465;SDS011;5280;42.600;23.556;2024-02-14T06:55:24;14.03;;;10.70;;
10465;SDS011;5280;42.600;23.556;2024-02-14T06:57:52;12.67;;;11.03;;
10465;SDS011;5280;42.600;23.556;2024-02-14T07:00:21;11.97;;;9.70;;
10465;SDS011;5280;42.600;23.556;2024-02-14T07:02:48;11.97;;;10.47;;
10465;SDS011;5280;42.600;23.556;2024-02-14T07:05:15;12.80;;;10.93;;
10465;SDS011;5280;42.600;23.556;2024-02-14T07:07:42;12.03;;;10.60;;
10465;SDS011;5280;42.600;23.556;2024-02-14T07:10:09;13.97;;;11.03;;
10465;SDS011;5280;42.600;23.556;2024-02-14T07:12:36;11.80;;;10.23;;
10465;SDS011;5280;42.600;23.556;2024-02-14T07:15:04;10.67;;;9.53;;
10465;SDS011;5280;42.600;23.556;2024-02-14T07:17:36;13.53;;;10.47;;
10465;SDS011;5280;42.600;23.556;2024-02-14T07:20:03;13.00;;;10.80;;
10465;SDS011;5280;42.600;23.556;2024-02-14T07:22:32;12.73;;;11.33;;
10465;SDS011;5280;42.600;23.556;2024-02-14T07:24:59;11.80;;;10.03;;
10465;SDS011;5280;42.600;23.556;2024-02-14T07:27:26;13.13;;;10.40;;
10465;SDS011;5280;42.600;23.556;2024-02-14T07:29:53;11.30;;;10.10;;
10465;SDS011;5280;42.600;23.556;2024-02-14T07:32:20;10.47;;;9.23;;
10465;SDS011;5280;42.600;23.556;2024-02-14T07:34:48;11.07;;;9.67;;
10465;SDS011;5280;42.600;23.556;2024-02-14T07:37:15;12.00;;;9.87;;
10465;SDS011;5280;42.600;23.556;2024-02-14T07:39:45;10.17;;;9.00;;
10465;SDS011;5280;42.600;23.556;2024-02-14T07:42:13;10.30;;;9.07;;
10465;SDS011;5280;42.600;23.556;2024-02-14T07:44:40;10.20;;;8.43;;
10465;SDS011;5280;42.600;23.556;2024-02-14T07:47:07;9.80;;;8.80;;
10465;SDS011;5280;42.600;23.556;2024-02-14T07:49:36;9.90;;;8.60;;
10465;SDS011;5280;42.600;23.556;2024-02-14T07:52:05;9.93;;;8.90;;
10465;SDS011;5280;42.600;23.556;2024-02-14T07:54:32;9.00;;;8.10;;
10465;SDS011;5280;42.600;23.556;2024-02-14T07:56:59;10.40;;;8.57;;
10465;SDS011;5280;42.600;23.556;2024-02-14T07:59:26;11.30;;;9.07;;
10465;SDS011;5280;42.600;23.556;2024-02-14T08:01:53;9.27;;;8.23;;
10465;SDS011;5280;42.600;23.556;2024-02-14T08:04:21;9.67;;;8.50;;
10465;SDS011;5280;42.600;23.556;2024-02-14T08:06:49;10.93;;;9.50;;
10465;SDS011;5280;42.600;23.556;2024-02-14T08:09:17;9.63;;;8.20;;
10465;SDS011;5280;42.600;23.556;2024-02-14T08:11:44;8.83;;;7.93;;
10465;SDS011;5280;42.600;23.556;2024-02-14T08:14:11;8.43;;;7.53;;
10465;SDS011;5280;42.600;23.556;2024-02-14T08:16:38;12.17;;;8.63;;
10465;SDS011;5280;42.600;23.556;2024-02-14T08:19:05;10.50;;;8.50;;
10465;SDS011;5280;42.600;23.556;2024-02-14T08:21:31;10.27;;;8.37;;
10465;SDS011;5280;42.600;23.556;2024-02-14T08:23:59;9.60;;;8.43;;
10465;SDS011;5280;42.600;23.556;2024-02-14T08:26:27;9.93;;;8.80;;
10465;SDS011;5280;42.600;23.556;2024-02-14T08:28:55;10.07;;;8.97;;
10465;SDS011;5280;42.600;23.556;2024-02-14T08:31:23;9.70;;;8.70;;
10465;SDS011;5280;42.600;23.556;2024-02-14T08:33:50;9.13;;;7.93;;
10465;SDS011;5280;42.600;23.556;2024-02-14T08:36:18;11.80;;;8.63;;
10465;SDS011;5280;42.600;23.556;2024-02-14T08:38:45;9.27;;;8.23;;
10465;SDS011;5280;42.600;23.556;2024-02-14T08:41:12;9.73;;;8.53;;
10465;SDS011;5280;42.600;23.556;2024-02-14T08:43:41;11.70;;;8.83;;
10465;SDS011;5280;42.600;23.556;2024-02-14T08:46:09;10.50;;;8.67;;
10465;SDS011;5280;42.600;23.556;2024-02-14T08:48:36;9.77;;;8.63;;
10465;SDS011;5280;42.600;23.556;2024-02-14T08:51:07;10.17;;;9.07;;
10465;SDS011;5280;42.600;23.556;2024-02-14T08:53:34;9.10;;;8.20;;
10465;SDS011;5280;42.600;23.556;2024-02-14T08:56:02;9.40;;;8.43;;
10465;SDS011;5280;42.600;23.556;2024-02-14T08:58:29;9.97;;;8.23;;
10465;SDS011;5280;42.600;23.556;2024-02-14T09:00:57;10.63;;;8.43;;
10465;SDS011;5280;42.600;23.556;2024-02-14T09:03:24;9.73;;;8.30;;
10465;SDS011;5280;42.600;23.556;2024-02-14T09:05:51;9.87;;;8.87;;
10465;SDS011;5280;42.600;23.556;2024-02-14T09:08:19;9.37;;;8.40;;
10465;SDS011;5280;42.600;23.556;2024-02-14T09:10:46;11.37;;;8.23;;
10465;SDS011;5280;42.600;23.556;2024-02-14T09:13:13;9.70;;;8.40;;
10465;SDS011;5280;42.600;23.556;2024-02-14T09:15:41;8.77;;;7.87;;
10465;SDS011;5280;42.600;23.556;2024-02-14T09:18:11;8.77;;;7.57;;
10465;SDS011;5280;42.600;23.556;2024-02-14T09:20:38;10.20;;;7.23;;
10465;SDS011;5280;42.600;23.556;2024-02-14T09:23:04;8.90;;;7.77;;
10465;SDS011;5280;42.600;23.556;2024-02-14T09:25:32;10.00;;;7.83;;
10465;SDS011;5280;42.600;23.556;2024-02-14T09:27:59;8.10;;;7.30;;
10465;SDS011;5280;42.600;23.556;2024-02-14T09:30:27;9.30;;;7.17;;
10465;SDS011;5280;42.600;23.556;2024-02-14T09:32:54;8.23;;;7.37;;
10465;SDS011;5280;42.600;23.556;2024-02-14T09:35:23;9.03;;;7.10;;
10465;SDS011;5280;42.600;23.556;2024-02-14T09:37:50;10.63;;;8.40;;
10465;SDS011;5280;42.600;23.556;2024-02-14T09:40:17;8.97;;;7.73;;
10465;SDS011;5280;42.600;23.556;2024-02-14T09:42:47;9.57;;;8.17;;
10465;SDS011;5280;42.600;23.556;2024-02-14T09:45:19;11.40;;;8.23;;
10465;SDS011;5280;42.600;23.556;2024-02-14T09:47:47;9.83;;;8.20;;
10465;SDS011;5280;42.600;23.556;2024-02-14T09:50:15;8.67;;;7.77;;
10465;SDS011;5280;42.600;23.556;2024-02-14T09:52:44;8.80;;;7.90;;
10465;SDS011;5280;42.600;23.556;2024-02-14T09:55:14;8.77;;;7.93;;
10465;SDS011;5280;42.600;23.556;2024-02-14T09:57:42;9.87;;;7.73;;
10465;SDS011;5280;42.600;23.556;2024-02-14T10:00:10;8.20;;;7.40;;
10465;SDS011;5280;42.600;23.556;2024-02-14T10:02:39;9.03;;;7.97;;
10465;SDS011;5280;42.600;23.556;2024-02-14T10:05:07;10.40;;;8.20;;
10465;SDS011;5280;42.600;23.556;2024-02-14T10:07:44;9.33;;;7.87;;
10465;SDS011;5280;42.600;23.556;2024-02-14T10:10:12;8.53;;;6.87;;
10465;SDS011;5280;42.600;23.556;2024-02-14T10:12:39;8.83;;;7.93;;
10465;SDS011;5280;42.600;23.556;2024-02-14T10:15:06;9.20;;;7.50;;
10465;SDS011;5280;42.600;23.556;2024-02-14T10:17:34;9.03;;;7.70;;
10465;SDS011;5280;42.600;23.556;2024-02-14T10:20:02;9.33;;;7.53;;
10465;SDS011;5280;42.600;23.556;2024-02-14T10:22:34;8.13;;;7.33;;
10465;SDS011;5280;42.600;23.556;2024-02-14T10:25:03;8.37;;;7.47;;
10465;SDS011;5280;42.600;23.556;2024-02-14T10:27:33;8.73;;;6.30;;
10465;SDS011;5280;42.600;23.556;2024-02-14T10:30:03;10.13;;;7.57;;
10465;SDS011;5280;42.600;23.556;2024-02-14T10:32:33;8.50;;;7.50;;
10465;SDS011;5280;42.600;23.556;2024-02-14T10:35:02;8.33;;;7.43;;
10465;SDS011;5280;42.600;23.556;2024-02-14T10:37:34;10.00;;;7.37;;
10465;SDS011;5280;42.600;23.556;2024-02-14T10:40:03;8.40;;;7.27;;
10465;SDS011;5280;42.600;23.556;2024-02-14T10:42:31;8.90;;;7.27;;
10465;SDS011;5280;42.600;23.556;2024-02-14T10:44:58;7.40;;;6.60;;
10465;SDS011;5280;42.600;23.556;2024-02-14T10:47:28;9.40;;;7.33;;
10465;SDS011;5280;42.600;23.556;2024-02-14T10:49:57;9.23;;;7.47;;
10465;SDS011;5280;42.600;23.556;2024-02-14T10:52:29;9.60;;;7.57;;
10465;SDS011;5280;42.600;23.556;2024-02-14T10:54:58;9.23;;;7.27;;
10465;SDS011;5280;42.600;23.556;2024-02-14T10:57:29;8.87;;;6.87;;
10465;SDS011;5280;42.600;23.556;2024-02-14T10:59:58;10.73;;;7.13;;
10465;SDS011;5280;42.600;23.556;2024-02-14T11:02:27;8.43;;;6.97;;
10465;SDS011;5280;42.600;23.556;2024-02-14T11:04:55;10.40;;;7.43;;
10465;SDS011;5280;42.600;23.556;2024-02-14T11:07:23;8.50;;;7.20;;
10465;SDS011;5280;42.600;23.556;2024-02-14T11:09:59;8.67;;;7.73;;
10465;SDS011;5280;42.600;23.556;2024-02-14T11:12:32;8.37;;;7.17;;
10465;SDS011;5280;42.600;23.556;2024-02-14T11:15:01;8.43;;;7.53;;
10465;SDS011;5280;42.600;23.556;2024-02-14T11:17:36;8.10;;;7.30;;
10465;SDS011;5280;42.600;23.556;2024-02-14T11:20:11;8.23;;;7.43;;
10465;SDS011;5280;42.600;23.556;2024-02-14T11:22:54;8.57;;;7.17;;
10465;SDS011;5280;42.600;23.556;2024-02-14T11:25:23;8.33;;;7.13;;
10465;SDS011;5280;42.600;23.556;2024-02-14T11:27:57;7.70;;;6.90;;
10465;SDS011;5280;42.600;23.556;2024-02-14T11:30:31;7.67;;;6.87;;
10465;SDS011;5280;42.600;23.556;2024-02-14T11:35:50;7.77;;;6.70;;
10465;SDS011;5280;42.600;23.556;2024-02-14T11:38:18;9.43;;;7.43;;
10465;SDS011;5280;42.600;23.556;2024-02-14T11:40:45;7.73;;;6.93;;
10465;SDS011;5280;42.600;23.556;2024-02-14T11:43:14;8.23;;;6.73;;
10465;SDS011;5280;42.600;23.556;2024-02-14T11:45:42;8.73;;;6.90;;
10465;SDS011;5280;42.600;23.556;2024-02-14T11:48:11;12.13;;;6.43;;
10465;SDS011;5280;42.600;23.556;2024-02-14T11:50:39;7.30;;;6.47;;
10465;SDS011;5280;42.600;23.556;2024-02-14T11:53:06;7.93;;;6.83;;
10465;SDS011;5280;42.600;23.556;2024-02-14T11:55:36;8.33;;;6.23;;
10465;SDS011;5280;42.600;23.556;2024-02-14T11:58:06;6.50;;;5.90;;
10465;SDS011;5280;42.600;23.556;2024-02-14T12:00:35;6.90;;;6.07;;
10465;SDS011;5280;42.600;23.556;2024-02-14T12:03:05;9.67;;;6.80;;
10465;SDS011;5280;42.600;23.556;2024-02-14T12:05:33;8.77;;;7.03;;
10465;SDS011;5280;42.600;23.556;2024-02-14T12:08:01;7.50;;;6.63;;
10465;SDS011;5280;42.600;23.556;2024-02-14T12:10:30;7.17;;;6.47;;
10465;SDS011;5280;42.600;23.556;2024-02-14T12:12:57;7.50;;;6.80;;
10465;SDS011;5280;42.600;23.556;2024-02-14T12:15:25;7.60;;;6.30;;
10465;SDS011;5280;42.600;23.556;2024-02-14T12:17:54;8.90;;;6.60;;
10465;SDS011;5280;42.600;23.556;2024-02-14T12:20:22;7.60;;;6.40;;
10465;SDS011;5280;42.600;23.556;2024-02-14T12:22:50;7.83;;;6.90;;
10465;SDS011;5280;42.600;23.556;2024-02-14T12:25:17;9.70;;;7.10;;
10465;SDS011;5280;42.600;23.556;2024-02-14T12:27:49;8.80;;;6.60;;
10465;SDS011;5280;42.600;23.556;2024-02-14T12:30:17;7.83;;;6.93;;
10465;SDS011;5280;42.600;23.556;2024-02-14T12:32:45;7.17;;;6.47;;
10465;SDS011;5280;42.600;23.556;2024-02-14T12:35:13;7.57;;;6.67;;
10465;SDS011;5280;42.600;23.556;2024-02-14T12:37:40;8.60;;;6.23;;
10465;SDS011;5280;42.600;23.556;2024-02-14T12:40:08;7.53;;;6.73;;
10465;SDS011;5280;42.600;23.556;2024-02-14T12:42:35;7.23;;;6.47;;
10465;SDS011;5280;42.600;23.556;2024-02-14T12:45:03;6.87;;;6.20;;
10465;SDS011;5280;42.600;23.556;2024-02-14T12:47:30;6.93;;;5.77;;
10465;SDS011;5280;42.600;23.556;2024-02-14T12:50:00;7.00;;;6.17;;
10465;SDS011;5280;42.600;23.556;2024-02-14T12:52:28;7.80;;;6.50;;
10465;SDS011;5280;42.600;23.556;2024-02-14T12:54:55;7.23;;;6.37;;
10465;SDS011;5280;42.600;23.556;2024-02-14T12:57:22;9.00;;;7.03;;
10465;SDS011;5280;42.600;23.556;2024-02-14T12:59:49;8.10;;;6.70;;
10465;SDS011;5280;42.600;23.556;2024-02-14T13:02:17;7.50;;;6.17;;
10465;SDS011;5280;42.600;23.556;2024-02-14T13:04:44;6.27;;;5.50;;
10465;SDS011;5280;42.600;23.556;2024-02-14T13:07:11;6.47;;;5.70;;
10465;SDS011;5280;42.600;23.556;2024-02-14T13:09:39;6.63;;;5.87;;
10465;SDS011;5280;42.600;23.556;2024-02-14T13:12:06;7.93;;;6.10;;
10465;SDS011;5280;42.600;23.556;2024-02-14T13:14:34;6.40;;;5.50;;
10465;SDS011;5280;42.600;23.556;2024-02-14T13:17:02;7.47;;;5.77;;
10465;SDS011;5280;42.600;23.556;2024-02-14T13:19:30;7.77;;;5.67;;
10465;SDS011;5280;42.600;23.556;2024-02-14T13:21:57;7.07;;;6.37;;
10465;SDS011;5280;42.600;23.556;2024-02-14T13:24:24;7.60;;;6.23;;
10465;SDS011;5280;42.600;23.556;2024-02-14T13:26:54;8.00;;;6.43;;
10465;SDS011;5280;42.600;23.556;2024-02-14T13:29:22;7.60;;;5.87;;
10465;SDS011;5280;42.600;23.556;2024-02-14T13:31:49;6.47;;;5.83;;
10465;SDS011;5280;42.600;23.556;2024-02-14T13:34:16;7.03;;;6.07;;
10465;SDS011;5280;42.600;23.556;2024-02-14T13:36:44;7.17;;;5.87;;
10465;SDS011;5280;42.600;23.556;2024-02-14T13:39:12;8.30;;;5.93;;
10465;SDS011;5280;42.600;23.556;2024-02-14T13:41:39;6.83;;;6.13;;
10465;SDS011;5280;42.600;23.556;2024-02-14T13:44:10;8.27;;;6.80;;
10465;SDS011;5280;42.600;23.556;2024-02-14T13:46:37;7.97;;;6.40;;
10465;SDS011;5280;42.600;23.556;2024-02-14T13:49:09;9.87;;;6.27;;
10465;SDS011;5280;42.600;23.556;2024-02-14T13:51:37;6.80;;;6.10;;
10465;SDS011;5280;42.600;23.556;2024-02-14T13:54:05;8.77;;;6.33;;
10465;SDS011;5280;42.600;23.556;2024-02-14T13:56:34;9.37;;;6.03;;
10465;SDS011;5280;42.600;23.556;2024-02-14T13:59:01;8.17;;;6.33;;
10465;SDS011;5280;42.600;23.556;2024-02-14T14:01:30;6.80;;;6.10;;
10465;SDS011;5280;42.600;23.556;2024-02-14T14:03:57;8.53;;;6.23;;
10465;SDS011;5280;42.600;23.556;2024-02-14T14:06:24;7.10;;;5.97;;
10465;SDS011;5280;42.600;23.556;2024-02-14T14:08:51;7.80;;;6.17;;
10465;SDS011;5280;42.600;23.556;2024-02-14T14:11:18;7.87;;;6.13;;
10465;SDS011;5280;42.600;23.556;2024-02-14T14:13:44;8.87;;;5.90;;
10465;SDS011;5280;42.600;23.556;2024-02-14T14:16:11;8.33;;;6.13;;
10465;SDS011;5280;42.600;23.556;2024-02-14T14:18:40;7.73;;;6.30;;
10465;SDS011;5280;42.600;23.556;2024-02-14T14:21:07;9.20;;;7.10;;
10465;SDS011;5280;42.600;23.556;2024-02-14T14:23:33;8.80;;;6.37;;
10465;SDS011;5280;42.600;23.556;2024-02-14T14:26:00;7.80;;;6.73;;
10465;SDS011;5280;42.600;23.556;2024-02-14T14:28:28;7.33;;;6.40;;
10465;SDS011;5280;42.600;23.556;2024-02-14T14:30:57;7.67;;;5.67;;
10465;SDS011;5280;42.600;23.556;2024-02-14T14:33:25;8.93;;;6.57;;
10465;SDS011;5280;42.600;23.556;2024-02-14T14:35:54;7.83;;;5.90;;
10465;SDS011;5280;42.600;23.556;2024-02-14T14:38:21;8.97;;;6.70;;
10465;SDS011;5280;42.600;23.556;2024-02-14T14:40:48;35.60;;;18.50;;
10465;SDS011;5280;42.600;23.556;2024-02-14T14:43:18;9.50;;;6.90;;
10465;SDS011;5280;42.600;23.556;2024-02-14T14:45:46;9.77;;;6.43;;
10465;SDS011;5280;42.600;23.556;2024-02-14T14:48:14;9.10;;;6.40;;